METAR Data
IDs: Format: Raw Decoded Include TAF

Data at: 2148 UTC 22 Sep 2020

KHYR 222053Z AUTO 25003KT 10SM CLR 27/09 A3004 RMK AO2 SLP169 T02720094 56020
KHYR 221953Z AUTO 00000KT 10SM CLR 27/10 A3005 RMK AO2 SLP175 T02720100
KHYR 221853Z AUTO 10SM CLR 26/14 A3008 RMK AO2 SLP183 T02560139
KHYR 221753Z AUTO 00000KT 10SM CLR 25/12 A3010 RMK AO2 SLP190 T02500122 10250 20067 58012
KHYR 221653Z AUTO 00000KT 10SM CLR 23/12 A3011 RMK AO2 SLP195 T02330122
KHYR 221553Z AUTO 00000KT 10SM CLR 21/14 A3013 RMK AO2 SLP201 T02060144
KHYR 221453Z AUTO 00000KT 10SM CLR 18/13 A3013 RMK AO2 SLP204 T01780133 51004
KHYR 221353Z AUTO 00000KT 10SM CLR 13/12 A3013 RMK AO2 SLP206 T01330122
KHYR 221335Z AUTO 00000KT 8SM SCT007 12/11 A3013 RMK AO2 T01170111
KHYR 221325Z AUTO 00000KT 3SM BR BKN007 11/10 A3013 RMK AO2 T01110100
KHYR 221323Z AUTO 00000KT 1 1/4SM BR BKN007 11/10 A3013 RMK AO2 T01110100
KHYR 221314Z AUTO 00000KT 3/4SM BR VV007 10/09 A3013 RMK AO2 T01000089
KHYR 221305Z AUTO 00000KT 1 1/4SM BR BKN007 09/08 A3013 RMK AO2 T00940078
KHYR 221258Z AUTO 00000KT 1SM BR VV007 09/08 A3013 RMK AO2 T00890078
KHYR 221253Z AUTO 00000KT 1 1/2SM BR SCT008 08/07 A3013 RMK AO2 VIS 1/2V3 SLP207 T00830072
KHYR 221241Z AUTO 00000KT 1SM BR VV008 08/07 A3013 RMK AO2 T00780067
KHYR 221233Z AUTO 00000KT 2 1/2SM BR SCT008 07/06 A3013 RMK AO2 T00720061
KHYR 221153Z AUTO 00000KT 1/4SM FG VV006 07/06 A3012 RMK AO2 SLP204 T00720061 10144 20072 51007
KHYR 221149Z AUTO 00000KT 3/4SM BR VV010 07/06 A3012 RMK AO2
KHYR 221146Z AUTO 00000KT 1 1/4SM BR SCT011 08/07 A3012 RMK AO2 VIS 3/4V2 1/2 T00780067
KHYR 221138Z AUTO 00000KT 2 1/2SM BR SCT009 07/07 A3012 RMK AO2 T00720067
KHYR 221119Z AUTO 00000KT 4SM BR OVC009 08/07 A3012 RMK AO2 T00830067
KHYR 221115Z AUTO 00000KT 1 1/4SM BR BKN009 08/07 A3012 RMK AO2 T00830067
KHYR 221107Z AUTO 00000KT 6SM BR BKN009 08/07 A3011 RMK AO2 T00830067
KHYR 221053Z AUTO 00000KT 9SM CLR 08/07 A3012 RMK AO2 SLP200 T00830067
KHYR 220953Z AUTO 00000KT 7SM CLR 09/08 A3011 RMK AO2 SLP198 T00890078
KHYR 220908Z AUTO 00000KT 3SM BR SCT013 10/09 A3010 RMK AO2 T01000089
KHYR 220902Z AUTO 00000KT 1 1/4SM BR SCT013 09/08 A3010 RMK AO2 VIS 3/4V5 T00940083
KHYR 220853Z AUTO 00000KT 1/4SM FG VV013 10/09 A3010 RMK AO2 SLP194 T01000094 56001
KHYR 220850Z AUTO 00000KT 1/4SM FG VV013 10/09 A3010 RMK AO2
KHYR 220841Z AUTO 00000KT 3/4SM BR VV015 11/09 A3010 RMK AO2 T01060094
KHYR 220832Z AUTO 00000KT 1 3/4SM BR CLR 10/09 A3010 RMK AO2 T01000094
KHYR 220814Z AUTO 00000KT 9SM CLR 10/09 A3010 RMK AO2 T01000089
KHYR 220805Z AUTO 00000KT 2SM BR CLR 11/09 A3010 RMK AO2 T01060094
KHYR 220753Z AUTO 00000KT 5SM BR CLR 11/10 A3010 RMK AO2 SLP194 T01060100
KHYR 220653Z AUTO 22003KT 10SM CLR 13/12 A3010 RMK AO2 SLP193 T01330117
KHYR 220553Z AUTO 20005KT 10SM CLR 14/13 A3011 RMK AO2 SLP194 T01440128 10183 20139 402330133 51005
KHYR 220453Z AUTO 20004KT 10SM CLR 15/13 A3011 RMK AO2 SLP195 T01500128
KHYR 220353Z AUTO 21004KT 10SM CLR 16/13 A3010 RMK AO2 SLP194 T01610133
KHYR 220253Z AUTO 20006KT 10SM CLR 17/13 A3009 RMK AO2 SLP189 T01670133 50002
KHYR 220153Z AUTO 17009G17KT 10SM CLR 17/13 A3009 RMK AO2 SLP191 T01670133
KHYR 220053Z AUTO 00000KT 10SM CLR 16/13 A3009 RMK AO2 SLP191 T01610128
KHYR 212353Z AUTO 17004KT 10SM FEW055 FEW100 18/13 A3008 RMK AO2 SLP187 60000 T01830128 10233 20183 53001
KHYR 212253Z AUTO 18010KT 10SM SCT100 21/13 A3007 RMK AO2 SLP182 T02060128
KHYR 212153Z AUTO 19011KT 10SM FEW041 BKN110 21/13 A3007 RMK AO2 RAB40E50 SLP181 P0000 T02110133
KHYR 212053Z AUTO 21010G20KT 10SM BKN090 22/12 A3008 RMK AO2 LTG DSNT ALQDS SLP183 T02220117 55013
KHYR 211953Z AUTO 19013G22KT 10SM SCT090 22/11 A3008 RMK AO2 SLP183 T02220111
KHYR 211853Z AUTO 17013G21KT 10SM CLR 22/11 A3010 RMK AO2 PK WND 18026/1802 SLP191 T02170111
KHYR 211753Z AUTO 18013KT 10SM CLR 21/11 A3012 RMK AO2 SLP198 T02110106 10211 20139 58013
KHYR 211653Z AUTO 19012KT 10SM CLR 19/10 A3013 RMK AO2 SLP202 T01940100
KHYR 211553Z AUTO 19012KT 10SM CLR 18/09 A3015 RMK AO2 SLP209 T01830094
KHYR 211453Z AUTO 18013KT 10SM CLR 17/08 A3016 RMK AO2 SLP212 T01720083 58002
KHYR 211353Z AUTO 18009KT 10SM CLR 16/08 A3016 RMK AO2 SLP215 T01560078
KHYR 211253Z AUTO 17008KT 10SM CLR 14/07 A3017 RMK AO2 SLP217 T01390067
KHYR 211153Z AUTO 18011KT 10SM CLR 14/06 A3016 RMK AO2 SLP215 T01440061 10161 20133 55001
KHYR 211053Z AUTO 18011KT 10SM CLR 14/06 A3016 RMK AO2 SLP214 T01440061
KHYR 210953Z AUTO 19012G20KT 10SM CLR 15/06 A3016 RMK AO2 SLP214 T01500056